sensor_id;sensor_type;location;lat;lon;timestamp;P1;durP1;ratioP1;P2;durP2;ratioP2
21800;SDS011;11062;51.164;16.924;2023-05-07T00:01:23;6.15;;;3.38;;
21800;SDS011;11062;51.164;16.924;2023-05-07T00:03:54;15.27;;;3.33;;
21800;SDS011;11062;51.164;16.924;2023-05-07T00:06:23;5.53;;;3.00;;
21800;SDS011;11062;51.164;16.924;2023-05-07T00:08:54;18.92;;;4.43;;
21800;SDS011;11062;51.164;16.924;2023-05-07T00:11:24;10.73;;;3.60;;
21800;SDS011;11062;51.164;16.924;2023-05-07T00:13:51;13.00;;;3.58;;
21800;SDS011;11062;51.164;16.924;2023-05-07T00:16:20;6.07;;;3.30;;
21800;SDS011;11062;51.164;16.924;2023-05-07T00:18:46;12.85;;;3.70;;
21800;SDS011;11062;51.164;16.924;2023-05-07T00:21:12;15.63;;;4.38;;
21800;SDS011;11062;51.164;16.924;2023-05-07T00:23:38;10.20;;;3.47;;
21800;SDS011;11062;51.164;16.924;2023-05-07T00:26:04;5.78;;;3.17;;
21800;SDS011;11062;51.164;16.924;2023-05-07T00:28:30;19.58;;;4.15;;
21800;SDS011;11062;51.164;16.924;2023-05-07T00:30:56;5.65;;;2.97;;
21800;SDS011;11062;51.164;16.924;2023-05-07T00:33:24;11.25;;;3.63;;
21800;SDS011;11062;51.164;16.924;2023-05-07T00:35:51;11.63;;;3.85;;
21800;SDS011;11062;51.164;16.924;2023-05-07T00:38:19;10.60;;;3.10;;
21800;SDS011;11062;51.164;16.924;2023-05-07T00:40:45;18.58;;;4.13;;
21800;SDS011;11062;51.164;16.924;2023-05-07T00:43:11;5.70;;;2.58;;
21800;SDS011;11062;51.164;16.924;2023-05-07T00:45:37;9.35;;;3.80;;
21800;SDS011;11062;51.164;16.924;2023-05-07T00:48:04;13.82;;;3.97;;
21800;SDS011;11062;51.164;16.924;2023-05-07T00:50:36;8.60;;;3.75;;
21800;SDS011;11062;51.164;16.924;2023-05-07T00:53:02;11.05;;;3.70;;
21800;SDS011;11062;51.164;16.924;2023-05-07T00:55:31;8.15;;;3.28;;
21800;SDS011;11062;51.164;16.924;2023-05-07T00:58:03;6.78;;;3.10;;
21800;SDS011;11062;51.164;16.924;2023-05-07T01:00:29;6.78;;;3.10;;
21800;SDS011;11062;51.164;16.924;2023-05-07T01:03:04;21.70;;;5.25;;
21800;SDS011;11062;51.164;16.924;2023-05-07T01:05:33;6.20;;;3.33;;
21800;SDS011;11062;51.164;16.924;2023-05-07T01:08:00;13.75;;;4.25;;
21800;SDS011;11062;51.164;16.924;2023-05-07T01:10:30;6.05;;;4.15;;
21800;SDS011;11062;51.164;16.924;2023-05-07T01:12:56;19.00;;;11.27;;
21800;SDS011;11062;51.164;16.924;2023-05-07T01:15:23;3.70;;;2.70;;
21800;SDS011;11062;51.164;16.924;2023-05-07T01:17:49;8.85;;;8.05;;
21800;SDS011;11062;51.164;16.924;2023-05-07T01:20:15;7.15;;;5.18;;
21800;SDS011;11062;51.164;16.924;2023-05-07T01:22:43;7.75;;;5.43;;
21800;SDS011;11062;51.164;16.924;2023-05-07T01:25:10;35.70;;;31.85;;
21800;SDS011;11062;51.164;16.924;2023-05-07T01:27:41;13.20;;;3.95;;
21800;SDS011;11062;51.164;16.924;2023-05-07T01:30:07;11.40;;;4.15;;
21800;SDS011;11062;51.164;16.924;2023-05-07T01:32:35;21.40;;;4.53;;
21800;SDS011;11062;51.164;16.924;2023-05-07T01:35:09;6.88;;;3.33;;
21800;SDS011;11062;51.164;16.924;2023-05-07T01:37:45;14.30;;;4.78;;
21800;SDS011;11062;51.164;16.924;2023-05-07T01:40:15;5.90;;;3.90;;
21800;SDS011;11062;51.164;16.924;2023-05-07T01:42:42;40.17;;;6.15;;
21800;SDS011;11062;51.164;16.924;2023-05-07T01:45:13;11.27;;;3.55;;
21800;SDS011;11062;51.164;16.924;2023-05-07T01:47:39;9.98;;;4.38;;
21800;SDS011;11062;51.164;16.924;2023-05-07T01:50:06;9.02;;;4.10;;
21800;SDS011;11062;51.164;16.924;2023-05-07T01:52:38;16.88;;;4.72;;
21800;SDS011;11062;51.164;16.924;2023-05-07T01:55:05;9.35;;;4.50;;
21800;SDS011;11062;51.164;16.924;2023-05-07T01:57:34;15.88;;;5.15;;
21800;SDS011;11062;51.164;16.924;2023-05-07T02:00:01;9.18;;;7.32;;
21800;SDS011;11062;51.164;16.924;2023-05-07T02:02:30;7.28;;;3.83;;
21800;SDS011;11062;51.164;16.924;2023-05-07T02:04:59;9.90;;;8.13;;
21800;SDS011;11062;51.164;16.924;2023-05-07T02:07:26;15.85;;;14.55;;
21800;SDS011;11062;51.164;16.924;2023-05-07T02:09:55;23.15;;;16.10;;
21800;SDS011;11062;51.164;16.924;2023-05-07T02:12:21;19.65;;;15.32;;
21800;SDS011;11062;51.164;16.924;2023-05-07T02:14:48;17.73;;;13.40;;
21800;SDS011;11062;51.164;16.924;2023-05-07T02:17:14;24.35;;;21.92;;
21800;SDS011;11062;51.164;16.924;2023-05-07T02:19:40;12.32;;;8.65;;
21800;SDS011;11062;51.164;16.924;2023-05-07T02:22:07;73.57;;;45.25;;
21800;SDS011;11062;51.164;16.924;2023-05-07T02:24:33;50.47;;;37.85;;
21800;SDS011;11062;51.164;16.924;2023-05-07T02:27:02;7.20;;;5.72;;
21800;SDS011;11062;51.164;16.924;2023-05-07T02:29:30;18.38;;;16.60;;
21800;SDS011;11062;51.164;16.924;2023-05-07T02:31:56;19.80;;;17.45;;
21800;SDS011;11062;51.164;16.924;2023-05-07T02:34:22;20.02;;;10.60;;
21800;SDS011;11062;51.164;16.924;2023-05-07T02:36:48;38.85;;;28.52;;
21800;SDS011;11062;51.164;16.924;2023-05-07T02:39:14;38.08;;;32.97;;
21800;SDS011;11062;51.164;16.924;2023-05-07T02:41:40;63.22;;;39.50;;
21800;SDS011;11062;51.164;16.924;2023-05-07T02:44:09;56.55;;;39.13;;
21800;SDS011;11062;51.164;16.924;2023-05-07T02:46:40;119.32;;;78.97;;
21800;SDS011;11062;51.164;16.924;2023-05-07T02:49:06;137.95;;;74.28;;
21800;SDS011;11062;51.164;16.924;2023-05-07T02:51:35;150.23;;;88.55;;
21800;SDS011;11062;51.164;16.924;2023-05-07T02:54:01;131.60;;;77.90;;
21800;SDS011;11062;51.164;16.924;2023-05-07T02:56:32;162.25;;;99.03;;
21800;SDS011;11062;51.164;16.924;2023-05-07T02:58:58;151.88;;;94.28;;
21800;SDS011;11062;51.164;16.924;2023-05-07T03:01:27;176.38;;;110.07;;
21800;SDS011;11062;51.164;16.924;2023-05-07T03:03:55;211.68;;;106.88;;
21800;SDS011;11062;51.164;16.924;2023-05-07T03:06:24;180.68;;;99.78;;
21800;SDS011;11062;51.164;16.924;2023-05-07T03:08:55;248.32;;;135.63;;
21800;SDS011;11062;51.164;16.924;2023-05-07T03:11:21;175.77;;;102.47;;
21800;SDS011;11062;51.164;16.924;2023-05-07T03:13:48;250.23;;;137.15;;
21800;SDS011;11062;51.164;16.924;2023-05-07T03:16:19;264.33;;;127.28;;
21800;SDS011;11062;51.164;16.924;2023-05-07T03:18:45;158.40;;;81.50;;
21800;SDS011;11062;51.164;16.924;2023-05-07T03:21:14;254.80;;;149.65;;
21800;SDS011;11062;51.164;16.924;2023-05-07T03:23:40;258.75;;;130.25;;
21800;SDS011;11062;51.164;16.924;2023-05-07T03:26:06;251.57;;;136.35;;
21800;SDS011;11062;51.164;16.924;2023-05-07T03:28:32;268.67;;;113.45;;
21800;SDS011;11062;51.164;16.924;2023-05-07T03:30:58;281.77;;;125.57;;
21800;SDS011;11062;51.164;16.924;2023-05-07T03:33:24;266.60;;;112.30;;
21800;SDS011;11062;51.164;16.924;2023-05-07T03:35:50;317.40;;;141.35;;
21800;SDS011;11062;51.164;16.924;2023-05-07T03:38:16;280.02;;;129.02;;
21800;SDS011;11062;51.164;16.924;2023-05-07T03:40:41;277.17;;;115.00;;
21800;SDS011;11062;51.164;16.924;2023-05-07T03:43:10;271.60;;;113.40;;
21800;SDS011;11062;51.164;16.924;2023-05-07T03:45:36;309.42;;;140.38;;
21800;SDS011;11062;51.164;16.924;2023-05-07T03:48:05;374.98;;;182.60;;
21800;SDS011;11062;51.164;16.924;2023-05-07T03:50:31;273.00;;;149.77;;
21800;SDS011;11062;51.164;16.924;2023-05-07T03:52:57;463.90;;;252.25;;
21800;SDS011;11062;51.164;16.924;2023-05-07T03:55:23;295.60;;;119.95;;
21800;SDS011;11062;51.164;16.924;2023-05-07T03:57:50;300.17;;;134.40;;
21800;SDS011;11062;51.164;16.924;2023-05-07T04:00:16;306.55;;;131.35;;
21800;SDS011;11062;51.164;16.924;2023-05-07T04:02:42;341.27;;;157.18;;
21800;SDS011;11062;51.164;16.924;2023-05-07T04:05:08;272.67;;;114.82;;
21800;SDS011;11062;51.164;16.924;2023-05-07T04:07:37;295.20;;;128.63;;
21800;SDS011;11062;51.164;16.924;2023-05-07T04:10:03;275.35;;;109.93;;
21800;SDS011;11062;51.164;16.924;2023-05-07T04:12:35;228.85;;;107.57;;
21800;SDS011;11062;51.164;16.924;2023-05-07T04:15:01;325.27;;;145.93;;
21800;SDS011;11062;51.164;16.924;2023-05-07T04:17:35;284.83;;;113.72;;
21800;SDS011;11062;51.164;16.924;2023-05-07T04:20:02;256.38;;;98.40;;
21800;SDS011;11062;51.164;16.924;2023-05-07T04:22:28;235.85;;;98.15;;
21800;SDS011;11062;51.164;16.924;2023-05-07T04:24:57;189.25;;;81.22;;
21800;SDS011;11062;51.164;16.924;2023-05-07T04:27:23;206.55;;;95.03;;
21800;SDS011;11062;51.164;16.924;2023-05-07T04:29:53;336.23;;;174.80;;
21800;SDS011;11062;51.164;16.924;2023-05-07T04:32:22;323.45;;;143.73;;
21800;SDS011;11062;51.164;16.924;2023-05-07T04:34:53;252.73;;;110.25;;
21800;SDS011;11062;51.164;16.924;2023-05-07T04:37:22;7.10;;;4.88;;
21800;SDS011;11062;51.164;16.924;2023-05-07T04:39:48;304.73;;;175.48;;
21800;SDS011;11062;51.164;16.924;2023-05-07T04:42:17;212.05;;;106.07;;
21800;SDS011;11062;51.164;16.924;2023-05-07T04:44:44;213.85;;;93.40;;
21800;SDS011;11062;51.164;16.924;2023-05-07T04:47:10;276.92;;;105.32;;
21800;SDS011;11062;51.164;16.924;2023-05-07T04:49:37;19.80;;;14.07;;
21800;SDS011;11062;51.164;16.924;2023-05-07T04:52:04;417.70;;;184.30;;
21800;SDS011;11062;51.164;16.924;2023-05-07T04:54:33;223.85;;;89.35;;
21800;SDS011;11062;51.164;16.924;2023-05-07T04:57:03;87.28;;;54.88;;
21800;SDS011;11062;51.164;16.924;2023-05-07T04:59:32;181.10;;;112.15;;
21800;SDS011;11062;51.164;16.924;2023-05-07T05:02:00;31.00;;;17.92;;
21800;SDS011;11062;51.164;16.924;2023-05-07T05:04:29;348.13;;;147.45;;
21800;SDS011;11062;51.164;16.924;2023-05-07T05:06:58;299.00;;;115.60;;
21800;SDS011;11062;51.164;16.924;2023-05-07T05:09:29;288.00;;;113.88;;
21800;SDS011;11062;51.164;16.924;2023-05-07T05:11:58;118.47;;;55.47;;
21800;SDS011;11062;51.164;16.924;2023-05-07T05:14:29;300.30;;;116.90;;
21800;SDS011;11062;51.164;16.924;2023-05-07T05:16:58;257.38;;;101.85;;
21800;SDS011;11062;51.164;16.924;2023-05-07T05:19:26;261.48;;;97.78;;
21800;SDS011;11062;51.164;16.924;2023-05-07T05:21:52;278.50;;;124.60;;
21800;SDS011;11062;51.164;16.924;2023-05-07T05:24:18;209.23;;;85.90;;
21800;SDS011;11062;51.164;16.924;2023-05-07T05:26:47;291.38;;;112.40;;
21800;SDS011;11062;51.164;16.924;2023-05-07T05:29:13;268.75;;;107.50;;
21800;SDS011;11062;51.164;16.924;2023-05-07T05:31:39;275.23;;;110.60;;
21800;SDS011;11062;51.164;16.924;2023-05-07T05:34:06;284.35;;;116.63;;
21800;SDS011;11062;51.164;16.924;2023-05-07T05:36:32;243.77;;;99.75;;
21800;SDS011;11062;51.164;16.924;2023-05-07T05:39:03;3.28;;;2.95;;
21800;SDS011;11062;51.164;16.924;2023-05-07T05:41:29;85.65;;;43.42;;
21800;SDS011;11062;51.164;16.924;2023-05-07T05:44:01;166.98;;;91.43;;
21800;SDS011;11062;51.164;16.924;2023-05-07T05:46:30;241.98;;;105.35;;
21800;SDS011;11062;51.164;16.924;2023-05-07T05:48:57;99.68;;;58.53;;
21800;SDS011;11062;51.164;16.924;2023-05-07T05:51:27;6.97;;;2.85;;
21800;SDS011;11062;51.164;16.924;2023-05-07T05:53:53;4.38;;;3.20;;
21800;SDS011;11062;51.164;16.924;2023-05-07T05:56:22;4.47;;;2.58;;
21800;SDS011;11062;51.164;16.924;2023-05-07T06:06:03;6.00;;;3.22;;
21800;SDS011;11062;51.164;16.924;2023-05-07T06:09:28;4.45;;;2.63;;
21800;SDS011;11062;51.164;16.924;2023-05-07T06:15:56;2.80;;;2.55;;
21800;SDS011;11062;51.164;16.924;2023-05-07T06:19:16;13.85;;;3.75;;
21800;SDS011;11062;51.164;16.924;2023-05-07T06:25:33;3.15;;;2.47;;
21800;SDS011;11062;51.164;16.924;2023-05-07T06:28:33;16.45;;;3.80;;
21800;SDS011;11062;51.164;16.924;2023-05-07T06:31:17;2.63;;;2.35;;
21800;SDS011;11062;51.164;16.924;2023-05-07T06:38:05;4.40;;;3.15;;
21800;SDS011;11062;51.164;16.924;2023-05-07T06:41:37;4.07;;;3.35;;
21800;SDS011;11062;51.164;16.924;2023-05-07T06:45:08;3.15;;;2.85;;
21800;SDS011;11062;51.164;16.924;2023-05-07T06:48:13;26.65;;;18.88;;
21800;SDS011;11062;51.164;16.924;2023-05-07T06:50:39;5.18;;;3.28;;
21800;SDS011;11062;51.164;16.924;2023-05-07T06:53:04;3.88;;;3.10;;
21800;SDS011;11062;51.164;16.924;2023-05-07T06:55:33;3.88;;;2.58;;
21800;SDS011;11062;51.164;16.924;2023-05-07T06:58:06;2.75;;;2.50;;
21800;SDS011;11062;51.164;16.924;2023-05-07T07:00:32;3.35;;;3.00;;
21800;SDS011;11062;51.164;16.924;2023-05-07T07:03:01;6.63;;;2.58;;
21800;SDS011;11062;51.164;16.924;2023-05-07T07:05:27;2.92;;;2.63;;
21800;SDS011;11062;51.164;16.924;2023-05-07T07:07:56;26.30;;;7.82;;
21800;SDS011;11062;51.164;16.924;2023-05-07T07:10:42;4.07;;;2.58;;
21800;SDS011;11062;51.164;16.924;2023-05-07T07:13:11;7.15;;;2.67;;
21800;SDS011;11062;51.164;16.924;2023-05-07T07:15:43;8.25;;;2.83;;
21800;SDS011;11062;51.164;16.924;2023-05-07T07:18:09;6.68;;;2.63;;
21800;SDS011;11062;51.164;16.924;2023-05-07T07:20:38;5.50;;;2.40;;
21800;SDS011;11062;51.164;16.924;2023-05-07T07:23:09;3.22;;;1.80;;
21800;SDS011;11062;51.164;16.924;2023-05-07T07:25:39;8.30;;;2.78;;
21800;SDS011;11062;51.164;16.924;2023-05-07T07:28:08;8.90;;;2.53;;
21800;SDS011;11062;51.164;16.924;2023-05-07T07:30:34;5.43;;;2.05;;
21800;SDS011;11062;51.164;16.924;2023-05-07T07:33:11;11.55;;;3.00;;
21800;SDS011;11062;51.164;16.924;2023-05-07T07:35:37;8.35;;;2.78;;
21800;SDS011;11062;51.164;16.924;2023-05-07T07:38:06;8.77;;;2.53;;
21800;SDS011;11062;51.164;16.924;2023-05-07T07:40:34;10.52;;;2.92;;
21800;SDS011;11062;51.164;16.924;2023-05-07T07:43:00;8.95;;;2.88;;
21800;SDS011;11062;51.164;16.924;2023-05-07T07:45:27;8.00;;;2.40;;
21800;SDS011;11062;51.164;16.924;2023-05-07T07:48:03;9.25;;;3.00;;
21800;SDS011;11062;51.164;16.924;2023-05-07T07:50:29;6.35;;;2.35;;
21800;SDS011;11062;51.164;16.924;2023-05-07T07:52:58;6.72;;;2.40;;
21800;SDS011;11062;51.164;16.924;2023-05-07T07:55:25;9.05;;;2.78;;
21800;SDS011;11062;51.164;16.924;2023-05-07T07:57:52;23.92;;;5.85;;
21800;SDS011;11062;51.164;16.924;2023-05-07T08:00:24;18.08;;;4.82;;
21800;SDS011;11062;51.164;16.924;2023-05-07T08:02:52;19.05;;;5.45;;
21800;SDS011;11062;51.164;16.924;2023-05-07T08:05:21;8.93;;;3.63;;
21800;SDS011;11062;51.164;16.924;2023-05-07T08:07:47;11.80;;;3.92;;
21800;SDS011;11062;51.164;16.924;2023-05-07T08:10:39;248.60;;;86.15;;
21800;SDS011;11062;51.164;16.924;2023-05-07T08:13:06;239.48;;;88.15;;
21800;SDS011;11062;51.164;16.924;2023-05-07T08:15:33;244.18;;;89.72;;
21800;SDS011;11062;51.164;16.924;2023-05-07T08:17:59;236.55;;;89.68;;
21800;SDS011;11062;51.164;16.924;2023-05-07T08:20:25;463.63;;;274.00;;
21800;SDS011;11062;51.164;16.924;2023-05-07T08:22:54;266.30;;;94.72;;
21800;SDS011;11062;51.164;16.924;2023-05-07T08:25:20;251.10;;;91.57;;
21800;SDS011;11062;51.164;16.924;2023-05-07T08:27:46;265.98;;;96.90;;
21800;SDS011;11062;51.164;16.924;2023-05-07T08:30:18;267.45;;;92.35;;
21800;SDS011;11062;51.164;16.924;2023-05-07T08:32:44;247.57;;;87.50;;
21800;SDS011;11062;51.164;16.924;2023-05-07T08:35:10;257.13;;;94.28;;
21800;SDS011;11062;51.164;16.924;2023-05-07T08:37:37;318.90;;;109.55;;
21800;SDS011;11062;51.164;16.924;2023-05-07T08:40:06;268.55;;;101.03;;
21800;SDS011;11062;51.164;16.924;2023-05-07T09:24:51;393.55;;;99.82;;
21800;SDS011;11062;51.164;16.924;2023-05-07T09:27:21;253.93;;;91.85;;
21800;SDS011;11062;51.164;16.924;2023-05-07T09:29:49;264.15;;;93.55;;
21800;SDS011;11062;51.164;16.924;2023-05-07T09:32:20;251.23;;;93.57;;
21800;SDS011;11062;51.164;16.924;2023-05-07T09:34:49;252.98;;;90.18;;
21800;SDS011;11062;51.164;16.924;2023-05-07T09:37:22;253.82;;;91.05;;
21800;SDS011;11062;51.164;16.924;2023-05-07T09:39:51;258.63;;;95.95;;
21800;SDS011;11062;51.164;16.924;2023-05-07T09:42:23;262.73;;;92.57;;
21800;SDS011;11062;51.164;16.924;2023-05-07T09:44:56;255.02;;;90.38;;
21800;SDS011;11062;51.164;16.924;2023-05-07T09:47:34;260.20;;;91.38;;
21800;SDS011;11062;51.164;16.924;2023-05-07T09:50:26;256.25;;;92.60;;
21800;SDS011;11062;51.164;16.924;2023-05-07T09:52:54;268.23;;;96.45;;
21800;SDS011;11062;51.164;16.924;2023-05-07T09:55:23;262.38;;;98.13;;
21800;SDS011;11062;51.164;16.924;2023-05-07T09:57:50;270.70;;;100.18;;
21800;SDS011;11062;51.164;16.924;2023-05-07T10:00:21;265.02;;;96.88;;
21800;SDS011;11062;51.164;16.924;2023-05-07T10:02:53;265.38;;;98.63;;
21800;SDS011;11062;51.164;16.924;2023-05-07T10:05:30;264.35;;;96.35;;
21800;SDS011;11062;51.164;16.924;2023-05-07T10:08:03;267.73;;;95.65;;
21800;SDS011;11062;51.164;16.924;2023-05-07T10:10:32;264.10;;;97.78;;
21800;SDS011;11062;51.164;16.924;2023-05-07T10:13:02;265.70;;;95.00;;
21800;SDS011;11062;51.164;16.924;2023-05-07T10:15:35;265.83;;;99.05;;
21800;SDS011;11062;51.164;16.924;2023-05-07T10:18:13;262.50;;;98.82;;
21800;SDS011;11062;51.164;16.924;2023-05-07T10:20:41;262.48;;;97.65;;
21800;SDS011;11062;51.164;16.924;2023-05-07T10:23:12;261.20;;;97.15;;
21800;SDS011;11062;51.164;16.924;2023-05-07T10:25:44;269.38;;;96.35;;
21800;SDS011;11062;51.164;16.924;2023-05-07T10:28:11;273.67;;;96.28;;
21800;SDS011;11062;51.164;16.924;2023-05-07T10:30:49;271.80;;;97.25;;
21800;SDS011;11062;51.164;16.924;2023-05-07T10:33:29;267.75;;;96.78;;
21800;SDS011;11062;51.164;16.924;2023-05-07T10:35:59;262.63;;;94.53;;
21800;SDS011;11062;51.164;16.924;2023-05-07T10:38:29;276.98;;;99.75;;
21800;SDS011;11062;51.164;16.924;2023-05-07T10:41:05;258.65;;;95.43;;
21800;SDS011;11062;51.164;16.924;2023-05-07T10:43:42;267.77;;;97.82;;
21800;SDS011;11062;51.164;16.924;2023-05-07T10:51:28;269.63;;;100.15;;
21800;SDS011;11062;51.164;16.924;2023-05-07T11:19:01;262.48;;;98.65;;
21800;SDS011;11062;51.164;16.924;2023-05-07T11:24:13;276.88;;;100.68;;
21800;SDS011;11062;51.164;16.924;2023-05-07T13:00:50;270.80;;;96.70;;
21800;SDS011;11062;51.164;16.924;2023-05-07T13:03:25;268.88;;;100.10;;
21800;SDS011;11062;51.164;16.924;2023-05-07T13:06:05;264.38;;;99.28;;
21800;SDS011;11062;51.164;16.924;2023-05-07T13:08:38;285.63;;;102.25;;
21800;SDS011;11062;51.164;16.924;2023-05-07T13:11:08;274.42;;;99.82;;
21800;SDS011;11062;51.164;16.924;2023-05-07T13:13:36;266.02;;;99.55;;
21800;SDS011;11062;51.164;16.924;2023-05-07T13:16:06;270.65;;;102.00;;
21800;SDS011;11062;51.164;16.924;2023-05-07T13:18:35;259.60;;;99.38;;
21800;SDS011;11062;51.164;16.924;2023-05-07T13:21:13;296.80;;;102.00;;
21800;SDS011;11062;51.164;16.924;2023-05-07T13:23:39;267.45;;;100.75;;
21800;SDS011;11062;51.164;16.924;2023-05-07T13:26:06;266.42;;;97.22;;
21800;SDS011;11062;51.164;16.924;2023-05-07T13:28:35;272.52;;;99.50;;
21800;SDS011;11062;51.164;16.924;2023-05-07T13:31:02;273.83;;;98.55;;
21800;SDS011;11062;51.164;16.924;2023-05-07T13:33:33;272.98;;;100.25;;
21800;SDS011;11062;51.164;16.924;2023-05-07T13:36:02;267.83;;;103.40;;
21800;SDS011;11062;51.164;16.924;2023-05-07T13:38:33;262.30;;;95.47;;
21800;SDS011;11062;51.164;16.924;2023-05-07T13:40:59;270.80;;;97.95;;
21800;SDS011;11062;51.164;16.924;2023-05-07T13:43:25;273.85;;;98.32;;
21800;SDS011;11062;51.164;16.924;2023-05-07T13:45:57;268.45;;;99.95;;
21800;SDS011;11062;51.164;16.924;2023-05-07T13:48:35;274.50;;;98.10;;
21800;SDS011;11062;51.164;16.924;2023-05-07T13:51:01;276.27;;;100.93;;
21800;SDS011;11062;51.164;16.924;2023-05-07T13:53:30;266.67;;;95.18;;
21800;SDS011;11062;51.164;16.924;2023-05-07T13:56:01;268.63;;;100.32;;
21800;SDS011;11062;51.164;16.924;2023-05-07T13:58:36;301.75;;;101.97;;
21800;SDS011;11062;51.164;16.924;2023-05-07T14:01:04;268.88;;;98.68;;
21800;SDS011;11062;51.164;16.924;2023-05-07T14:03:33;270.17;;;95.60;;
21800;SDS011;11062;51.164;16.924;2023-05-07T14:06:05;270.08;;;96.03;;
21800;SDS011;11062;51.164;16.924;2023-05-07T14:08:33;277.67;;;100.78;;
21800;SDS011;11062;51.164;16.924;2023-05-07T14:11:02;270.20;;;96.72;;
21800;SDS011;11062;51.164;16.924;2023-05-07T14:13:31;268.02;;;95.63;;
21800;SDS011;11062;51.164;16.924;2023-05-07T14:15:59;286.23;;;101.78;;
21800;SDS011;11062;51.164;16.924;2023-05-07T14:18:25;265.45;;;96.35;;
21800;SDS011;11062;51.164;16.924;2023-05-07T14:20:57;270.17;;;94.85;;
21800;SDS011;11062;51.164;16.924;2023-05-07T14:23:32;272.25;;;93.70;;
21800;SDS011;11062;51.164;16.924;2023-05-07T14:26:03;277.83;;;94.35;;
21800;SDS011;11062;51.164;16.924;2023-05-07T14:28:35;277.85;;;100.60;;
21800;SDS011;11062;51.164;16.924;2023-05-07T14:31:04;280.85;;;97.03;;
21800;SDS011;11062;51.164;16.924;2023-05-07T14:33:40;267.55;;;93.97;;
21800;SDS011;11062;51.164;16.924;2023-05-07T14:36:08;265.27;;;94.68;;
21800;SDS011;11062;51.164;16.924;2023-05-07T14:38:40;257.48;;;96.28;;
21800;SDS011;11062;51.164;16.924;2023-05-07T14:41:09;264.35;;;94.30;;
21800;SDS011;11062;51.164;16.924;2023-05-07T14:43:37;267.33;;;97.63;;
21800;SDS011;11062;51.164;16.924;2023-05-07T14:46:04;262.05;;;92.93;;
21800;SDS011;11062;51.164;16.924;2023-05-07T14:48:33;284.10;;;96.32;;
21800;SDS011;11062;51.164;16.924;2023-05-07T14:51:02;255.68;;;93.20;;
21800;SDS011;11062;51.164;16.924;2023-05-07T14:53:28;259.60;;;93.40;;
21800;SDS011;11062;51.164;16.924;2023-05-07T14:56:00;263.48;;;94.65;;
21800;SDS011;11062;51.164;16.924;2023-05-07T14:58:31;299.60;;;98.22;;
21800;SDS011;11062;51.164;16.924;2023-05-07T15:00:58;261.60;;;96.95;;
21800;SDS011;11062;51.164;16.924;2023-05-07T15:03:26;271.33;;;99.50;;
21800;SDS011;11062;51.164;16.924;2023-05-07T15:05:52;269.95;;;100.18;;
21800;SDS011;11062;51.164;16.924;2023-05-07T15:08:24;314.98;;;101.95;;
21800;SDS011;11062;51.164;16.924;2023-05-07T15:10:53;290.20;;;96.97;;
21800;SDS011;11062;51.164;16.924;2023-05-07T15:13:22;256.70;;;94.35;;
21800;SDS011;11062;51.164;16.924;2023-05-07T15:15:48;274.55;;;96.35;;
21800;SDS011;11062;51.164;16.924;2023-05-07T15:18:17;269.40;;;95.65;;
21800;SDS011;11062;51.164;16.924;2023-05-07T15:20:46;267.90;;;94.00;;
21800;SDS011;11062;51.164;16.924;2023-05-07T15:23:12;261.10;;;94.88;;
21800;SDS011;11062;51.164;16.924;2023-05-07T15:25:39;272.35;;;97.72;;
21800;SDS011;11062;51.164;16.924;2023-05-07T15:28:08;271.67;;;99.22;;
21800;SDS011;11062;51.164;16.924;2023-05-07T15:30:34;271.42;;;98.25;;
21800;SDS011;11062;51.164;16.924;2023-05-07T15:33:03;264.73;;;94.85;;
21800;SDS011;11062;51.164;16.924;2023-05-07T15:35:29;283.30;;;96.03;;
21800;SDS011;11062;51.164;16.924;2023-05-07T15:37:55;274.23;;;95.88;;
21800;SDS011;11062;51.164;16.924;2023-05-07T15:40:24;272.50;;;94.90;;
21800;SDS011;11062;51.164;16.924;2023-05-07T15:42:54;276.52;;;98.00;;
21800;SDS011;11062;51.164;16.924;2023-05-07T15:45:21;272.60;;;99.88;;
21800;SDS011;11062;51.164;16.924;2023-05-07T15:47:51;270.85;;;97.55;;
21800;SDS011;11062;51.164;16.924;2023-05-07T15:50:20;265.27;;;96.55;;
21800;SDS011;11062;51.164;16.924;2023-05-07T15:52:49;272.75;;;95.22;;
21800;SDS011;11062;51.164;16.924;2023-05-07T15:55:19;278.70;;;96.00;;
21800;SDS011;11062;51.164;16.924;2023-05-07T15:57:47;263.95;;;94.07;;
21800;SDS011;11062;51.164;16.924;2023-05-07T16:00:16;265.45;;;93.32;;
21800;SDS011;11062;51.164;16.924;2023-05-07T16:02:45;280.95;;;95.22;;
21800;SDS011;11062;51.164;16.924;2023-05-07T16:05:14;256.27;;;91.97;;
21800;SDS011;11062;51.164;16.924;2023-05-07T16:07:42;262.58;;;93.90;;
21800;SDS011;11062;51.164;16.924;2023-05-07T16:10:14;279.75;;;99.40;;
21800;SDS011;11062;51.164;16.924;2023-05-07T16:12:42;277.92;;;99.47;;
21800;SDS011;11062;51.164;16.924;2023-05-07T16:15:09;279.20;;;99.32;;
21800;SDS011;11062;51.164;16.924;2023-05-07T16:17:38;270.52;;;96.88;;
21800;SDS011;11062;51.164;16.924;2023-05-07T16:20:04;281.35;;;99.93;;
21800;SDS011;11062;51.164;16.924;2023-05-07T16:22:36;283.05;;;97.18;;
21800;SDS011;11062;51.164;16.924;2023-05-07T16:25:10;270.33;;;98.30;;
21800;SDS011;11062;51.164;16.924;2023-05-07T16:27:39;261.77;;;94.00;;
21800;SDS011;11062;51.164;16.924;2023-05-07T16:30:11;262.08;;;94.63;;
21800;SDS011;11062;51.164;16.924;2023-05-07T16:32:40;263.02;;;94.75;;
21800;SDS011;11062;51.164;16.924;2023-05-07T16:35:06;280.00;;;97.85;;
21800;SDS011;11062;51.164;16.924;2023-05-07T16:37:32;279.85;;;100.03;;
21800;SDS011;11062;51.164;16.924;2023-05-07T16:40:09;272.00;;;94.13;;
21800;SDS011;11062;51.164;16.924;2023-05-07T16:42:35;276.33;;;93.47;;
21800;SDS011;11062;51.164;16.924;2023-05-07T16:45:04;259.58;;;93.20;;
21800;SDS011;11062;51.164;16.924;2023-05-07T16:47:31;267.23;;;95.82;;
21800;SDS011;11062;51.164;16.924;2023-05-07T16:50:26;259.23;;;92.93;;
21800;SDS011;11062;51.164;16.924;2023-05-07T16:53:01;259.17;;;92.38;;
21800;SDS011;11062;51.164;16.924;2023-05-07T16:55:31;259.45;;;97.00;;
21800;SDS011;11062;51.164;16.924;2023-05-07T16:58:20;262.52;;;96.72;;
21800;SDS011;11062;51.164;16.924;2023-05-07T17:00:47;251.55;;;92.68;;
21800;SDS011;11062;51.164;16.924;2023-05-07T17:03:16;254.65;;;92.88;;
21800;SDS011;11062;51.164;16.924;2023-05-07T17:05:48;251.48;;;91.35;;
21800;SDS011;11062;51.164;16.924;2023-05-07T17:08:18;268.48;;;92.13;;
21800;SDS011;11062;51.164;16.924;2023-05-07T17:10:44;265.73;;;93.18;;
21800;SDS011;11062;51.164;16.924;2023-05-07T17:13:12;265.20;;;92.85;;
21800;SDS011;11062;51.164;16.924;2023-05-07T17:15:40;253.77;;;91.38;;
21800;SDS011;11062;51.164;16.924;2023-05-07T17:18:09;257.95;;;91.35;;
21800;SDS011;11062;51.164;16.924;2023-05-07T17:20:38;261.13;;;93.25;;
21800;SDS011;11062;51.164;16.924;2023-05-07T17:23:04;268.00;;;95.35;;
21800;SDS011;11062;51.164;16.924;2023-05-07T17:25:31;257.50;;;94.35;;
21800;SDS011;11062;51.164;16.924;2023-05-07T17:28:00;262.73;;;95.82;;